Terminal Aerodrome Forecast
Issued by NWS

Home | Current Version | Previous Version | Text Only | Print | Product List | Glossary On
Versions: 1 2 3 4 5 6 7 8 9 10 11 12
000
FTUS41 KLWX 181100
TAFMTN
TAF
KMTN 181125Z 1812/1912 VRB03KT P6SM SCT035 BKN050
     FM181600 15005KT P6SM FEW035 SCT050
     FM182300 VRB03KT P6SM FEW035 SCT050
     FM190700 02006KT P6SM SCT090=

USA.gov is the U.S. government's official web portal to all federal, state and local government web resources and services.